Time;durP1;ratioP1;P1;durP2;ratioP2;P2;SDS_P1;SDS_P2;PMS_P1;PMS_P2;Temp;Humidity;BMP_temperature;BMP_pressure;BME280_temperature;BME280_humidity;BME280_pressure;Samples;Min_cycle;Max_cycle;Signal;HPM_P1;HPM_P2
2021/07/16 00:00:43;;;;;;;9.83;8.93;;;20.20;99.90;;;;;;5075045;28;20184;-70
2021/07/16 00:03:08;;;;;;;9.43;8.40;;;20.10;99.90;;;;;;5075253;28;20193;-69
2021/07/16 00:05:34;;;;;;;9.80;8.87;;;20.10;99.90;;;;;;5074543;28;20264;-69
2021/07/16 00:07:59;;;;;;;8.33;7.63;;;20.10;99.90;;;;;;5074345;28;20202;-69
2021/07/16 00:10:25;;;;;;;10.10;9.17;;;20.20;99.90;;;;;;5072945;28;20190;-70
2021/07/16 00:12:51;;;;;;;14.30;11.80;;;20.10;99.90;;;;;;5074295;28;20186;-69
2021/07/16 00:15:19;;;;;;;9.33;8.50;;;20.10;99.90;;;;;;5074380;28;20600;-69
2021/07/16 00:17:44;;;;;;;9.70;8.90;;;20.10;99.90;;;;;;5073864;28;20407;-69
2021/07/16 00:20:11;;;;;;;12.13;10.50;;;20.10;99.90;;;;;;5073206;28;20419;-70
2021/07/16 00:22:37;;;;;;;11.43;8.60;;;20.10;99.90;;;;;;5074175;28;20230;-70
2021/07/16 00:25:08;;;;;;;8.80;8.07;;;20.10;99.90;;;;;;5074088;28;20902;-70
2021/07/16 00:27:34;;;;;;;10.63;9.53;;;20.20;99.90;;;;;;5073853;28;21019;-69
2021/07/16 00:30:00;;;;;;;9.23;8.43;;;20.20;99.90;;;;;;5074992;28;20504;-69
2021/07/16 00:32:26;;;;;;;10.23;9.20;;;20.10;99.90;;;;;;5074383;28;20772;-69
2021/07/16 00:34:52;;;;;;;10.00;9.20;;;20.20;99.90;;;;;;5075003;28;20392;-69
2021/07/16 00:37:18;;;;;;;11.03;10.03;;;20.20;99.90;;;;;;5074433;28;20169;-69
2021/07/16 00:39:44;;;;;;;11.03;10.03;;;20.30;99.90;;;;;;5074028;28;20791;-70
2021/07/16 00:42:09;;;;;;;9.63;8.80;;;20.20;99.90;;;;;;5073686;28;20254;-70
2021/07/16 00:44:36;;;;;;;10.57;9.63;;;20.20;99.90;;;;;;5073912;28;20180;-69
2021/07/16 00:47:04;;;;;;;10.30;9.30;;;20.20;99.90;;;;;;5073433;28;20230;-69
2021/07/16 00:49:30;;;;;;;11.70;10.60;;;20.30;99.90;;;;;;5073715;28;20432;-69
2021/07/16 00:51:56;;;;;;;11.47;10.37;;;20.20;99.90;;;;;;5074113;28;20408;-69
2021/07/16 00:54:22;;;;;;;10.63;9.63;;;20.10;99.90;;;;;;5072143;28;20423;-69
2021/07/16 00:56:47;;;;;;;9.90;9.00;;;20.10;99.90;;;;;;5073431;28;20176;-69
2021/07/16 00:59:15;;;;;;;10.37;9.47;;;20.00;99.90;;;;;;5073706;28;20211;-68
2021/07/16 01:01:42;;;;;;;9.20;8.40;;;20.00;99.90;;;;;;5073856;28;20181;-69
2021/07/16 01:04:08;;;;;;;10.00;9.10;;;20.00;99.90;;;;;;5073262;28;20442;-69
2021/07/16 01:06:33;;;;;;;10.87;9.87;;;20.00;99.90;;;;;;5073219;28;20442;-69
2021/07/16 01:08:59;;;;;;;11.33;10.10;;;19.90;99.90;;;;;;5071869;28;20220;-69
2021/07/16 01:11:24;;;;;;;10.63;9.63;;;19.90;99.90;;;;;;5073206;28;20173;-69
2021/07/16 01:13:50;;;;;;;10.77;9.67;;;19.90;99.90;;;;;;5073258;28;20188;-69
2021/07/16 01:16:16;;;;;;;9.33;8.53;;;20.00;99.90;;;;;;5073191;28;20172;-69
2021/07/16 01:18:41;;;;;;;10.57;9.57;;;20.00;99.90;;;;;;5071617;28;20901;-69
2021/07/16 01:21:07;;;;;;;11.20;10.20;;;20.10;99.90;;;;;;5073075;28;20265;-69
2021/07/16 01:23:33;;;;;;;11.13;10.03;;;20.10;99.90;;;;;;5072980;28;20166;-69
2021/07/16 01:26:00;;;;;;;10.00;9.10;;;20.00;99.90;;;;;;5073228;28;20410;-69
2021/07/16 01:28:25;;;;;;;10.37;9.43;;;20.00;99.90;;;;;;5073044;28;20493;-69
2021/07/16 01:30:53;;;;;;;12.20;11.00;;;20.00;99.90;;;;;;5072465;28;20414;-70
2021/07/16 01:33:19;;;;;;;10.03;8.93;;;20.00;99.90;;;;;;5072939;28;20173;-69
2021/07/16 01:35:45;;;;;;;9.70;8.80;;;19.90;99.90;;;;;;5072901;28;20424;-69
2021/07/16 01:38:11;;;;;;;11.50;9.67;;;19.90;99.90;;;;;;5072816;28;20413;-69
2021/07/16 01:40:37;;;;;;;11.17;10.07;;;19.90;99.90;;;;;;5072924;28;20628;-69
2021/07/16 01:43:05;;;;;;;9.80;8.90;;;19.80;99.90;;;;;;5072809;28;20185;-70
2021/07/16 01:45:33;;;;;;;9.60;8.90;;;19.80;99.90;;;;;;5072547;28;20447;-70
2021/07/16 01:48:06;;;;;;;10.73;9.77;;;19.80;99.90;;;;;;5072571;28;20456;-68
2021/07/16 01:50:33;;;;;;;10.57;9.60;;;19.80;99.90;;;;;;5073056;28;20512;-69
2021/07/16 01:53:00;;;;;;;11.13;10.13;;;19.80;99.90;;;;;;5054986;28;20511;-68
2021/07/16 01:55:28;;;;;;;10.30;9.40;;;19.90;99.90;;;;;;5072386;28;20417;-68
2021/07/16 01:57:57;;;;;;;9.73;8.87;;;19.90;99.90;;;;;;5072118;28;20413;-68
2021/07/16 02:00:26;;;;;;;13.13;9.90;;;19.80;99.90;;;;;;5072186;28;20462;-69
2021/07/16 02:02:54;;;;;;;10.07;9.17;;;19.70;99.90;;;;;;5072037;28;20469;-69
2021/07/16 02:05:20;;;;;;;9.63;8.60;;;19.70;99.90;;;;;;5072324;28;20415;-68
2021/07/16 02:07:47;;;;;;;13.00;11.70;;;19.70;99.90;;;;;;5072223;28;20456;-68
2021/07/16 02:10:14;;;;;;;11.10;9.97;;;19.60;99.90;;;;;;5072412;28;20453;-69
2021/07/16 02:12:40;;;;;;;11.30;10.30;;;19.60;99.90;;;;;;5072111;28;20412;-69
2021/07/16 02:15:27;;;;;;;11.90;10.90;;;19.60;99.90;;;;;;5072032;28;20174;-68
2021/07/16 02:17:53;;;;;;;11.73;9.87;;;19.60;99.90;;;;;;5072037;28;20186;-68
2021/07/16 02:20:26;;;;;;;11.27;10.20;;;19.70;99.90;;;;;;5072065;28;20476;-69
2021/07/16 02:22:53;;;;;;;10.00;9.13;;;19.60;99.90;;;;;;5071952;28;20170;-68
2021/07/16 02:25:19;;;;;;;11.37;10.37;;;19.70;99.90;;;;;;5071674;28;20415;-67
2021/07/16 02:27:47;;;;;;;12.50;10.60;;;19.70;99.90;;;;;;5071889;28;20825;-69
2021/07/16 02:30:13;;;;;;;13.10;11.80;;;19.70;99.90;;;;;;5070650;28;20418;-67
2021/07/16 02:32:39;;;;;;;11.10;10.00;;;19.70;99.90;;;;;;5071718;28;20514;-69
2021/07/16 02:35:06;;;;;;;12.70;11.60;;;19.60;99.90;;;;;;5071847;28;20496;-68
2021/07/16 02:37:32;;;;;;;12.97;11.63;;;19.70;99.90;;;;;;5071518;28;20209;-69
2021/07/16 02:39:58;;;;;;;12.60;11.47;;;19.60;99.90;;;;;;5071659;28;20432;-69
2021/07/16 02:42:23;;;;;;;12.50;11.40;;;19.60;99.90;;;;;;5070889;28;20976;-70
2021/07/16 02:44:49;;;;;;;11.97;10.97;;;19.50;99.90;;;;;;5072065;28;20175;-69
2021/07/16 02:47:14;;;;;;;10.90;9.90;;;19.50;99.90;;;;;;5071877;28;20274;-69
2021/07/16 02:49:39;;;;;;;13.77;12.13;;;19.50;99.90;;;;;;5071604;28;20652;-69
2021/07/16 02:52:05;;;;;;;12.53;11.50;;;19.40;99.90;;;;;;5071568;28;20272;-70
2021/07/16 02:54:30;;;;;;;12.03;10.83;;;19.50;99.90;;;;;;5071571;28;20215;-70
2021/07/16 02:56:56;;;;;;;11.90;10.80;;;19.50;99.90;;;;;;5071594;28;20167;-70
2021/07/16 02:59:21;;;;;;;12.37;11.20;;;19.50;99.90;;;;;;5071462;28;20219;-69
2021/07/16 03:01:58;;;;;;;13.80;12.40;;;19.50;99.90;;;;;;5071524;28;20705;-70
2021/07/16 03:04:24;;;;;;;13.00;11.70;;;19.60;99.90;;;;;;5071556;28;20262;-69
2021/07/16 03:06:50;;;;;;;11.07;10.17;;;19.60;99.90;;;;;;5071260;28;20549;-69
2021/07/16 03:09:15;;;;;;;12.07;10.90;;;19.60;99.90;;;;;;5071816;28;20437;-70
2021/07/16 03:11:41;;;;;;;11.67;10.50;;;19.60;99.90;;;;;;5071437;28;20162;-69
2021/07/16 03:14:07;;;;;;;13.53;11.20;;;19.50;99.90;;;;;;5071606;28;20233;-69
2021/07/16 03:16:32;;;;;;;12.83;11.50;;;19.50;99.90;;;;;;5071524;28;20171;-70
2021/07/16 03:18:58;;;;;;;12.93;11.73;;;19.40;99.90;;;;;;5071421;28;20212;-69
2021/07/16 03:21:24;;;;;;;11.40;10.40;;;19.40;99.90;;;;;;5071213;28;20169;-70
2021/07/16 03:23:49;;;;;;;13.53;12.33;;;19.40;99.90;;;;;;5071343;28;20774;-70
2021/07/16 03:26:15;;;;;;;12.43;11.10;;;19.50;99.90;;;;;;5071597;28;20704;-66
2021/07/16 03:28:41;;;;;;;12.77;11.57;;;19.50;99.90;;;;;;5071125;28;20191;-68
2021/07/16 03:31:07;;;;;;;12.83;11.70;;;19.50;99.90;;;;;;5071377;28;20258;-69
2021/07/16 03:33:33;;;;;;;12.47;11.20;;;19.50;99.90;;;;;;5071161;28;20495;-70
2021/07/16 03:35:58;;;;;;;12.27;11.17;;;19.50;99.90;;;;;;5071193;28;20164;-69
2021/07/16 03:38:23;;;;;;;11.80;10.70;;;19.50;99.90;;;;;;5071235;28;20202;-70
2021/07/16 03:40:52;;;;;;;11.77;10.70;;;19.50;99.90;;;;;;5071159;28;20183;-70
2021/07/16 03:43:18;;;;;;;13.10;11.83;;;19.50;99.90;;;;;;5071365;28;20174;-70
2021/07/16 03:45:43;;;;;;;12.67;11.47;;;19.60;99.90;;;;;;5070948;28;20775;-71
2021/07/16 03:48:09;;;;;;;12.63;11.43;;;19.60;99.90;;;;;;5070884;28;20191;-70
2021/07/16 03:50:34;;;;;;;14.40;12.80;;;19.60;99.90;;;;;;5070978;28;20194;-69
2021/07/16 03:53:00;;;;;;;12.60;11.50;;;19.70;99.90;;;;;;5071823;28;20237;-69
2021/07/16 03:55:25;;;;;;;14.67;12.47;;;19.60;99.90;;;;;;5074999;28;20176;-70
2021/07/16 03:57:51;;;;;;;13.23;12.07;;;19.60;99.90;;;;;;5074410;28;20170;-70
2021/07/16 04:00:28;;;;;;;13.40;12.00;;;19.70;99.90;;;;;;5074502;28;20192;-69
2021/07/16 04:02:54;;;;;;;13.30;12.00;;;19.70;99.90;;;;;;5074698;28;20455;-70
2021/07/16 04:05:20;;;;;;;12.63;11.50;;;19.70;99.90;;;;;;5074372;28;20499;-69
2021/07/16 04:07:45;;;;;;;16.30;14.37;;;19.80;99.90;;;;;;5074379;28;20537;-69
2021/07/16 04:10:13;;;;;;;14.43;13.03;;;19.80;99.90;;;;;;5074332;28;20542;-70
2021/07/16 04:12:38;;;;;;;12.33;11.23;;;19.90;99.90;;;;;;5074224;28;20537;-69
2021/07/16 04:15:04;;;;;;;13.80;12.50;;;19.90;99.90;;;;;;5074214;28;20413;-70
2021/07/16 04:17:32;;;;;;;13.27;12.10;;;20.00;99.90;;;;;;5074169;28;20180;-69
2021/07/16 04:19:57;;;;;;;13.67;12.37;;;20.00;99.90;;;;;;5074072;28;20435;-69
2021/07/16 04:22:23;;;;;;;14.80;11.10;;;20.10;99.90;;;;;;5074125;28;20407;-69
2021/07/16 04:24:49;;;;;;;14.57;13.00;;;20.10;99.90;;;;;;5074298;28;20649;-69
2021/07/16 04:27:15;;;;;;;12.97;11.83;;;20.20;99.90;;;;;;5073847;28;20199;-69
2021/07/16 04:29:42;;;;;;;13.33;12.07;;;20.20;99.90;;;;;;5074842;28;20586;-69
2021/07/16 04:32:08;;;;;;;12.70;11.43;;;20.40;99.90;;;;;;5074491;28;20171;-70
2021/07/16 04:34:36;;;;;;;12.07;10.97;;;20.70;99.90;;;;;;5073959;28;20835;-70
2021/07/16 04:37:03;;;;;;;12.77;10.37;;;20.90;99.90;;;;;;5073713;28;20967;-70
2021/07/16 04:39:29;;;;;;;11.30;10.03;;;21.20;99.90;;;;;;5074199;28;20437;-70
2021/07/16 04:41:55;;;;;;;9.10;8.30;;;21.30;99.90;;;;;;5074156;28;20909;-70
2021/07/16 04:44:21;;;;;;;10.30;9.47;;;21.30;99.90;;;;;;5074693;28;20224;-69
2021/07/16 04:46:47;;;;;;;9.83;9.10;;;21.40;99.90;;;;;;5073720;28;20284;-70
2021/07/16 04:49:13;;;;;;;10.10;9.27;;;21.50;99.90;;;;;;5073743;28;20478;-69
2021/07/16 04:51:39;;;;;;;10.43;9.53;;;21.60;99.90;;;;;;5073698;28;20406;-70
2021/07/16 04:54:06;;;;;;;10.23;9.27;;;21.40;99.90;;;;;;5073718;28;20173;-69
2021/07/16 04:56:32;;;;;;;9.70;8.87;;;21.20;99.90;;;;;;5073562;28;20162;-70
2021/07/16 04:58:58;;;;;;;12.37;10.57;;;21.20;99.90;;;;;;5073499;28;20958;-70
2021/07/16 05:01:25;;;;;;;9.07;8.40;;;21.40;99.90;;;;;;5073632;28;20400;-69
2021/07/16 05:03:51;;;;;;;10.80;9.67;;;22.10;99.90;;;;;;5073441;28;20193;-69
2021/07/16 05:06:18;;;;;;;9.17;8.00;;;22.20;99.90;;;;;;5072884;28;20418;-70
2021/07/16 05:08:43;;;;;;;10.40;9.30;;;22.30;99.90;;;;;;5073646;28;20432;-70
2021/07/16 05:11:10;;;;;;;7.87;7.23;;;22.70;99.90;;;;;;5075486;28;20407;-69
2021/07/16 05:13:37;;;;;;;7.83;7.13;;;23.60;99.90;;;;;;5073692;28;20181;-69
2021/07/16 05:16:07;;;;;;;8.20;7.50;;;23.30;99.90;;;;;;5074055;28;20758;-69
2021/07/16 05:18:34;;;;;;;8.07;7.37;;;23.40;99.90;;;;;;5074129;28;20398;-69
2021/07/16 05:21:00;;;;;;;8.67;7.87;;;24.20;99.90;;;;;;5073026;28;20911;-69
2021/07/16 05:23:27;;;;;;;7.43;6.83;;;24.80;99.90;;;;;;5074234;28;20477;-69
2021/07/16 05:25:52;;;;;;;7.43;6.83;;;24.70;99.90;;;;;;5074292;28;20926;-69
2021/07/16 05:28:18;;;;;;;8.47;7.67;;;25.00;99.90;;;;;;5073607;28;20443;-69
2021/07/16 05:30:44;;;;;;;8.67;7.97;;;25.00;99.90;;;;;;5072729;28;20173;-70
2021/07/16 05:33:10;;;;;;;7.23;6.60;;;25.10;99.90;;;;;;5073971;28;20766;-70
2021/07/16 05:35:35;;;;;;;7.70;7.10;;;24.50;99.90;;;;;;5073177;28;20249;-70
2021/07/16 05:38:01;;;;;;;6.87;6.27;;;24.30;99.90;;;;;;5073216;28;20399;-70
2021/07/16 05:40:26;;;;;;;6.80;6.27;;;25.10;99.90;;;;;;5072691;28;20575;-70
2021/07/16 05:42:52;;;;;;;7.30;6.60;;;25.70;99.90;;;;;;5072535;28;20198;-70
2021/07/16 05:45:18;;;;;;;6.43;5.83;;;25.80;99.90;;;;;;5072700;28;20257;-70
2021/07/16 05:47:44;;;;;;;9.47;7.57;;;26.00;99.90;;;;;;5073271;28;21013;-70
2021/07/16 05:50:10;;;;;;;7.13;6.53;;;26.00;99.90;;;;;;5072418;28;20574;-70
2021/07/16 05:52:35;;;;;;;9.17;8.10;;;26.20;99.90;;;;;;5071071;28;20201;-70
2021/07/16 05:55:02;;;;;;;8.23;7.43;;;25.80;99.90;;;;;;5072302;28;20404;-70
2021/07/16 05:57:28;;;;;;;7.73;7.07;;;25.20;99.90;;;;;;5072219;28;20588;-69
2021/07/16 05:59:53;;;;;;;10.63;7.50;;;26.20;99.90;;;;;;5070718;28;20432;-69
2021/07/16 06:02:19;;;;;;;8.87;8.00;;;26.30;99.90;;;;;;5071138;28;20170;-70
2021/07/16 06:04:44;;;;;;;8.40;7.50;;;25.60;99.90;;;;;;5072210;28;20190;-70
2021/07/16 06:07:10;;;;;;;8.37;7.53;;;25.90;99.90;;;;;;5072255;28;20208;-70
2021/07/16 06:09:35;;;;;;;8.67;7.83;;;26.00;99.90;;;;;;5072129;28;20183;-70
2021/07/16 06:12:01;;;;;;;9.13;8.17;;;24.60;99.90;;;;;;5072139;28;20163;-70
2021/07/16 06:14:29;;;;;;;8.00;7.20;;;24.70;99.90;;;;;;5072032;28;20237;-70
2021/07/16 06:16:55;;;;;;;8.83;7.93;;;24.80;99.90;;;;;;5071876;28;20166;-70
2021/07/16 06:19:20;;;;;;;9.93;8.03;;;24.80;99.90;;;;;;5071940;28;20427;-70
2021/07/16 06:21:46;;;;;;;7.20;6.60;;;25.20;99.90;;;;;;5071934;28;20675;-70
2021/07/16 06:24:12;;;;;;;6.20;5.80;;;25.10;99.90;;;;;;5071822;28;20181;-70
2021/07/16 06:26:38;;;;;;;8.00;7.30;;;26.60;99.90;;;;;;5071778;28;20737;-69
2021/07/16 06:29:04;;;;;;;6.40;5.80;;;27.10;99.90;;;;;;5071765;28;20793;-69
2021/07/16 06:31:30;;;;;;;6.57;5.87;;;27.20;99.90;;;;;;5071841;28;20257;-69
2021/07/16 06:33:55;;;;;;;6.27;5.77;;;27.00;99.90;;;;;;5071968;28;20990;-69
2021/07/16 06:36:21;;;;;;;7.17;6.43;;;27.50;99.90;;;;;;5071821;28;20169;-69
2021/07/16 06:38:47;;;;;;;6.97;6.20;;;27.40;99.90;;;;;;5072239;28;20186;-70
2021/07/16 06:41:12;;;;;;;6.67;6.07;;;28.40;99.90;;;;;;5071630;28;20424;-70
2021/07/16 06:43:38;;;;;;;7.40;6.60;;;27.30;99.90;;;;;;5071691;28;20172;-70
2021/07/16 06:46:04;;;;;;;6.70;6.20;;;26.60;99.90;;;;;;5071795;28;20174;-70
2021/07/16 06:48:30;;;;;;;6.30;5.73;;;27.50;99.90;;;;;;5071623;28;20209;-70
2021/07/16 06:50:55;;;;;;;6.90;6.30;;;27.70;99.90;;;;;;5071998;28;20408;-70
2021/07/16 06:53:21;;;;;;;7.10;6.00;;;28.60;99.90;;;;;;5071602;28;20174;-70
2021/07/16 06:55:46;;;;;;;6.13;5.57;;;27.40;99.90;;;;;;5070320;28;20213;-70
2021/07/16 06:58:12;;;;;;;5.33;4.90;;;26.90;99.90;;;;;;5070245;28;20649;-70
2021/07/16 07:00:37;;;;;;;5.60;5.20;;;28.50;99.90;;;;;;5071661;28;20211;-69
2021/07/16 07:03:03;;;;;;;6.40;5.80;;;30.20;99.90;;;;;;5071520;28;20548;-70
2021/07/16 07:05:28;;;;;;;5.37;4.90;;;29.60;99.90;;;;;;5072170;28;20166;-70
2021/07/16 07:07:54;;;;;;;5.43;4.97;;;28.40;99.90;;;;;;5071521;28;20279;-70
2021/07/16 07:10:20;;;;;;;5.37;4.97;;;29.00;99.90;;;;;;5071579;28;20600;-70
2021/07/16 07:12:46;;;;;;;6.50;5.87;;;30.00;99.90;;;;;;5071341;28;20633;-71
2021/07/16 07:15:12;;;;;;;6.80;6.20;;;29.00;99.90;;;;;;5071703;28;20170;-72
2021/07/16 07:17:40;;;;;;;5.30;4.90;;;28.50;99.90;;;;;;5071948;28;20408;-71
2021/07/16 07:20:06;;;;;;;5.87;5.37;;;28.40;99.90;;;;;;5071740;28;20424;-69
2021/07/16 07:22:31;;;;;;;5.10;4.70;;;30.30;99.90;;;;;;5071578;28;20455;-69
2021/07/16 07:24:57;;;;;;;5.20;4.73;;;29.90;99.90;;;;;;5071590;28;20416;-70
2021/07/16 07:27:22;;;;;;;6.40;5.73;;;29.40;99.90;;;;;;5071558;28;20202;-71
2021/07/16 07:29:48;;;;;;;6.73;6.10;;;28.30;99.90;;;;;;5075616;28;20232;-71
2021/07/16 07:32:14;;;;;;;5.73;5.30;;;28.30;99.90;;;;;;5075233;28;20224;-71
2021/07/16 07:34:39;;;;;;;5.87;5.43;;;28.30;99.90;;;;;;5075367;28;20211;-71
2021/07/16 07:37:05;;;;;;;6.13;5.53;;;29.00;99.90;;;;;;5075125;28;20554;-70
2021/07/16 07:39:31;;;;;;;6.17;5.70;;;29.30;99.90;;;;;;5075020;28;20186;-71
2021/07/16 07:41:57;;;;;;;7.60;5.20;;;29.20;99.90;;;;;;5074922;28;20766;-70
2021/07/16 07:44:22;;;;;;;9.23;6.00;;;29.80;99.90;;;;;;5075265;28;20181;-69
2021/07/16 07:46:48;;;;;;;5.73;5.33;;;30.90;99.90;;;;;;5074861;28;20749;-70
2021/07/16 07:49:14;;;;;;;5.40;4.97;;;32.00;99.90;;;;;;5074809;28;20208;-74
2021/07/16 07:51:41;;;;;;;6.37;5.00;;;32.00;99.90;;;;;;5074837;28;20612;-70
2021/07/16 07:54:07;;;;;;;6.20;5.70;;;31.20;99.90;;;;;;5074661;28;20166;-70
2021/07/16 07:56:33;;;;;;;6.63;6.03;;;30.80;99.90;;;;;;5074790;28;20409;-70
2021/07/16 07:59:00;;;;;;;5.87;5.27;;;31.30;99.90;;;;;;5074600;28;20428;-70
2021/07/16 08:01:28;;;;;;;6.83;6.00;;;30.90;99.90;;;;;;5074623;28;20404;-70
2021/07/16 08:03:54;;;;;;;6.37;5.87;;;30.90;99.90;;;;;;5074573;28;20859;-70
2021/07/16 08:06:19;;;;;;;6.77;6.17;;;29.70;99.90;;;;;;5081794;28;20451;-68
2021/07/16 08:08:45;;;;;;;8.23;5.47;;;30.60;99.90;;;;;;5095575;28;20679;-70
2021/07/16 08:11:10;;;;;;;5.57;5.07;;;31.90;99.90;;;;;;5095855;28;20173;-70
2021/07/16 08:13:36;;;;;;;6.27;5.67;;;32.10;99.90;;;;;;5094772;28;20162;-69
2021/07/16 08:16:02;;;;;;;5.87;5.37;;;31.40;99.90;;;;;;5093380;28;20652;-70
2021/07/16 08:18:28;;;;;;;6.57;5.00;;;31.30;99.90;;;;;;5094717;28;20399;-70
2021/07/16 08:20:57;;;;;;;5.83;5.43;;;30.50;99.90;;;;;;5094545;28;20583;-70
2021/07/16 08:23:23;;;;;;;5.70;5.20;;;30.20;99.90;;;;;;5094964;28;20420;-70
2021/07/16 08:25:48;;;;;;;5.63;5.10;;;31.00;99.90;;;;;;5093899;28;20410;-70
2021/07/16 08:28:14;;;;;;;6.43;5.87;;;30.50;99.90;;;;;;5094375;28;20205;-70
2021/07/16 08:30:39;;;;;;;5.47;5.00;;;30.10;99.90;;;;;;5094564;28;20200;-70
2021/07/16 08:33:05;;;;;;;6.50;5.20;;;31.40;99.90;;;;;;5094048;28;20169;-70
2021/07/16 08:35:31;;;;;;;6.87;4.90;;;31.60;99.90;;;;;;5094966;28;20169;-70
2021/07/16 08:37:57;;;;;;;6.40;5.70;;;30.80;99.90;;;;;;5074057;28;20461;-70
2021/07/16 08:40:23;;;;;;;5.50;5.00;;;31.00;99.90;;;;;;5083535;28;20197;-70
2021/07/16 08:42:49;;;;;;;8.07;5.87;;;31.60;99.90;;;;;;5094648;28;20226;-71
2021/07/16 08:45:15;;;;;;;8.20;5.40;;;32.40;99.90;;;;;;5095233;28;20494;-71
2021/07/16 08:47:42;;;;;;;6.33;5.30;;;32.60;99.90;;;;;;5094608;28;20225;-70
2021/07/16 08:50:10;;;;;;;6.90;5.60;;;32.10;99.90;;;;;;5094207;28;20419;-70
2021/07/16 08:52:37;;;;;;;6.53;5.73;;;31.70;99.90;;;;;;5093729;28;20483;-71
2021/07/16 08:55:04;;;;;;;6.77;6.30;;;31.70;99.90;;;;;;5093887;28;20404;-70
2021/07/16 08:57:31;;;;;;;6.20;5.60;;;31.40;99.90;;;;;;5093840;28;20404;-70
2021/07/16 08:59:57;;;;;;;6.57;5.23;;;31.30;99.90;;;;;;5093951;28;20426;-72
2021/07/16 09:02:26;;;;;;;10.60;6.13;;;31.60;99.90;;;;;;5095311;28;20400;-69
2021/07/16 09:04:58;;;;;;;7.10;5.70;;;31.70;99.90;;;;;;5073661;28;20190;-69
2021/07/16 09:07:24;;;;;;;6.23;5.63;;;31.80;99.90;;;;;;5087582;28;20448;-69
2021/07/16 09:09:50;;;;;;;6.77;6.17;;;31.60;99.90;;;;;;5096069;28;20429;-70
2021/07/16 09:12:15;;;;;;;6.57;5.90;;;31.80;99.90;;;;;;5093985;28;20170;-70
2021/07/16 09:14:42;;;;;;;10.20;6.67;;;31.30;99.90;;;;;;5077889;28;20593;-74
2021/07/16 09:17:13;;;;;;;6.73;5.97;;;30.90;99.90;;;;;;5089284;28;20544;-74
2021/07/16 09:19:52;;;;;;;6.50;5.73;;;32.60;99.90;;;;;;5094448;28;20432;-72
2021/07/16 09:22:21;;;;;;;6.33;5.60;;;33.70;99.90;;;;;;5094321;28;20445;-70
2021/07/16 09:24:50;;;;;;;8.00;6.13;;;32.70;99.90;;;;;;5097983;28;20396;-70
2021/07/16 09:27:42;;;;;;;5.97;5.50;;;32.30;99.90;;;;;;5096012;28;20450;-70
2021/07/16 09:30:26;;;;;;;6.50;5.90;;;32.80;99.90;;;;;;5095145;28;20438;-71
2021/07/16 09:33:04;;;;;;;5.40;5.00;;;32.30;99.90;;;;;;5093937;28;20419;-70
2021/07/16 09:35:40;;;;;;;6.60;6.07;;;32.70;99.90;;;;;;5092401;28;20772;-69
2021/07/16 09:38:12;;;;;;;8.30;6.17;;;33.20;99.90;;;;;;5075362;28;20435;-69
2021/07/16 09:40:39;;;;;;;7.93;6.70;;;33.40;99.90;;;;;;5077466;28;20430;-69
2021/07/16 09:43:10;;;;;;;6.50;5.63;;;33.10;99.90;;;;;;5093280;28;20411;-69
2021/07/16 09:45:40;;;;;;;6.97;6.37;;;32.80;99.90;;;;;;5093564;28;20460;-70
2021/07/16 09:48:35;;;;;;;8.70;7.50;;;33.00;99.90;;;;;;5088813;28;20545;-69
2021/07/16 09:51:20;;;;;;;8.27;7.43;;;33.50;99.90;;;;;;5083236;28;20523;-69
2021/07/16 09:53:48;;;;;;;7.33;6.63;;;32.20;99.90;;;;;;5077589;28;20400;-71
2021/07/16 09:56:25;;;;;;;7.90;7.20;;;30.90;99.90;;;;;;5072505;28;20428;-69
2021/07/16 09:59:06;;;;;;;6.80;6.20;;;31.40;99.90;;;;;;5090505;28;20922;-70
2021/07/16 10:01:34;;;;;;;7.20;6.63;;;31.80;99.90;;;;;;5092453;28;20777;-69
2021/07/16 10:04:08;;;;;;;6.83;6.23;;;32.50;99.90;;;;;;5082878;28;20992;-69
2021/07/16 10:06:34;;;;;;;6.83;6.00;;;32.40;99.90;;;;;;5077398;28;20916;-70
2021/07/16 10:08:59;;;;;;;6.80;6.00;;;31.70;99.90;;;;;;5083142;28;20436;-69
2021/07/16 10:11:29;;;;;;;5.43;5.03;;;32.20;99.90;;;;;;5072313;28;20239;-70
2021/07/16 10:13:59;;;;;;;7.80;5.97;;;32.10;99.90;;;;;;5077279;28;20248;-69
2021/07/16 10:16:25;;;;;;;6.83;6.10;;;31.50;99.90;;;;;;5091934;28;20826;-69
2021/07/16 10:18:52;;;;;;;6.70;5.87;;;32.00;99.90;;;;;;5092570;28;20518;-69
2021/07/16 10:21:19;;;;;;;7.20;6.60;;;31.60;99.90;;;;;;5092185;28;20158;-69
2021/07/16 10:23:46;;;;;;;6.63;6.13;;;30.90;99.90;;;;;;5092397;28;20407;-69
2021/07/16 10:26:12;;;;;;;7.03;6.53;;;31.50;99.90;;;;;;5092342;28;20879;-72
2021/07/16 10:28:41;;;;;;;7.90;6.40;;;32.10;99.90;;;;;;5091410;28;20461;-69
2021/07/16 10:31:28;;;;;;;8.47;7.50;;;31.70;99.90;;;;;;5072056;28;20432;-71
2021/07/16 10:33:55;;;;;;;8.73;7.20;;;31.60;99.90;;;;;;5071900;28;20479;-70
2021/07/16 10:36:44;;;;;;;6.60;5.87;;;31.70;99.90;;;;;;5072804;28;20405;-70
2021/07/16 10:39:12;;;;;;;8.67;7.77;;;31.90;99.90;;;;;;5076365;28;20432;-70
2021/07/16 10:41:40;;;;;;;8.27;7.47;;;31.30;99.90;;;;;;5092392;28;20460;-70
2021/07/16 10:44:07;;;;;;;11.83;8.20;;;31.20;99.90;;;;;;5075531;28;20412;-71
2021/07/16 10:46:38;;;;;;;9.10;7.27;;;31.90;99.90;;;;;;5071799;28;20901;-72
2021/07/16 10:49:09;;;;;;;8.93;8.13;;;31.20;99.90;;;;;;5071975;28;20996;-74
2021/07/16 10:51:36;;;;;;;7.87;7.23;;;30.90;99.90;;;;;;5071906;28;20911;-70
2021/07/16 10:54:04;;;;;;;9.50;6.97;;;31.60;99.90;;;;;;5072268;28;20420;-70
2021/07/16 10:56:43;;;;;;;7.20;6.60;;;31.60;99.90;;;;;;5071626;28;20405;-70
2021/07/16 10:59:10;;;;;;;8.13;7.33;;;31.20;99.90;;;;;;5071118;28;20432;-70
2021/07/16 11:01:39;;;;;;;7.40;6.70;;;30.90;99.90;;;;;;5071658;28;20413;-71
2021/07/16 11:04:07;;;;;;;7.83;6.97;;;31.30;99.90;;;;;;5074446;28;20432;-72
2021/07/16 11:06:51;;;;;;;7.07;6.40;;;31.40;99.90;;;;;;5080704;28;20408;-71
2021/07/16 11:09:37;;;;;;;8.10;5.90;;;30.70;99.90;;;;;;5094719;28;20419;-71
2021/07/16 11:12:25;;;;;;;6.70;6.10;;;30.80;99.90;;;;;;5095932;28;20403;-71
2021/07/16 11:14:53;;;;;;;6.90;5.67;;;31.40;99.90;;;;;;5095735;28;20416;-71
2021/07/16 11:17:36;;;;;;;6.70;6.10;;;31.10;99.90;;;;;;5095861;28;20411;-70
2021/07/16 11:20:20;;;;;;;6.40;5.87;;;30.60;99.90;;;;;;5095677;28;20427;-72
2021/07/16 11:22:59;;;;;;;11.33;5.83;;;30.60;99.90;;;;;;5095705;28;20814;-72
2021/07/16 11:25:25;;;;;;;6.70;6.13;;;30.90;99.90;;;;;;5095729;28;20410;-72
2021/07/16 11:27:51;;;;;;;6.57;5.90;;;30.90;99.90;;;;;;5095400;28;20537;-72
2021/07/16 11:30:17;;;;;;;7.10;6.47;;;31.20;99.90;;;;;;5094621;28;20435;-73
2021/07/16 11:32:42;;;;;;;7.43;6.80;;;31.40;99.90;;;;;;5095618;28;20154;-69
2021/07/16 11:35:10;;;;;;;6.80;6.23;;;31.90;99.90;;;;;;5094975;28;20636;-70
2021/07/16 11:37:44;;;;;;;6.07;5.47;;;32.20;99.90;;;;;;5095324;28;20165;-70
2021/07/16 11:40:18;;;;;;;5.03;4.63;;;32.00;99.90;;;;;;5095430;28;20796;-69
2021/07/16 11:42:49;;;;;;;5.73;5.13;;;31.70;99.90;;;;;;5095437;28;20395;-69
2021/07/16 11:45:24;;;;;;;7.40;5.90;;;30.90;99.90;;;;;;5094713;28;20494;-70
2021/07/16 11:47:51;;;;;;;8.60;5.80;;;30.60;99.90;;;;;;5074868;28;20498;-69
2021/07/16 11:50:17;;;;;;;6.50;4.83;;;30.60;99.90;;;;;;5074872;28;20424;-69
2021/07/16 11:52:52;;;;;;;5.10;4.70;;;30.30;99.90;;;;;;5074234;28;20420;-69
2021/07/16 11:55:21;;;;;;;5.43;4.80;;;30.40;99.90;;;;;;5074987;28;20173;-73
2021/07/16 11:57:51;;;;;;;9.60;6.20;;;30.50;99.90;;;;;;5074960;28;20405;-69
2021/07/16 12:00:22;;;;;;;6.77;5.60;;;30.60;99.90;;;;;;5091322;28;20423;-71
2021/07/16 12:02:47;;;;;;;8.00;5.40;;;30.50;99.90;;;;;;5095228;28;20404;-69
2021/07/16 12:05:15;;;;;;;6.03;5.03;;;30.50;99.90;;;;;;5095584;28;20426;-69
2021/07/16 12:07:44;;;;;;;7.90;6.00;;;30.80;99.90;;;;;;5093967;28;20196;-70
2021/07/16 12:10:15;;;;;;;5.80;5.27;;;30.90;99.90;;;;;;5093579;28;20427;-70
2021/07/16 12:12:41;;;;;;;5.27;4.77;;;31.00;99.50;;;;;;5094589;28;20411;-70
2021/07/16 12:15:19;;;;;;;5.53;4.87;;;30.80;99.90;;;;;;5094070;28;20906;-70
2021/07/16 12:17:52;;;;;;;6.43;5.47;;;30.80;99.80;;;;;;5094623;28;20412;-70
2021/07/16 12:20:19;;;;;;;6.73;5.30;;;31.10;99.90;;;;;;5094487;28;20423;-71
2021/07/16 12:22:47;;;;;;;6.40;5.90;;;30.80;98.80;;;;;;5094795;28;20890;-69
2021/07/16 12:25:15;;;;;;;5.27;4.80;;;30.80;99.90;;;;;;5094592;28;20396;-71
2021/07/16 12:27:41;;;;;;;5.50;4.90;;;30.60;99.90;;;;;;5094446;28;20554;-71
2021/07/16 12:30:14;;;;;;;5.00;4.43;;;30.80;99.70;;;;;;5094524;28;20446;-71
2021/07/16 12:32:50;;;;;;;5.07;4.60;;;30.90;99.70;;;;;;5094327;28;20411;-69
2021/07/16 12:35:18;;;;;;;4.97;4.47;;;30.80;99.70;;;;;;5094403;28;20480;-69
2021/07/16 12:37:47;;;;;;;5.00;4.50;;;30.90;99.80;;;;;;5094107;28;20537;-68
2021/07/16 12:40:17;;;;;;;5.33;4.83;;;31.00;98.10;;;;;;5094283;28;21081;-68
2021/07/16 12:43:10;;;;;;;6.00;5.27;;;31.10;98.70;;;;;;5094190;28;20403;-68